Time;durP1;ratioP1;P1;durP2;ratioP2;P2;SDS_P1;SDS_P2;PMS_P1;PMS_P2;Temp;Humidity;BMP_temperature;BMP_pressure;BME280_temperature;BME280_humidity;BME280_pressure;Samples;Min_cycle;Max_cycle;Signal;HPM_P1;HPM_P2
2022/01/20 00:01:41;;;;;;;20.73;3.67;;;4.20;99.90;;;;;;4984772;28;20038;-77
2022/01/20 00:09:53;;;;;;;29.37;3.13;;;4.30;99.90;;;;;;5002070;28;20117;-77
2022/01/20 00:23:41;;;;;;;20.20;2.60;;;4.10;99.90;;;;;;4990381;28;20051;-77
2022/01/20 00:26:09;;;;;;;23.77;2.70;;;4.00;99.90;;;;;;4964670;28;20097;-76
2022/01/20 00:28:39;;;;;;;23.20;3.00;;;4.00;99.90;;;;;;5005438;28;20561;-78
2022/01/20 00:31:27;;;;;;;21.00;2.70;;;4.00;99.90;;;;;;4969646;28;20045;-77
2022/01/20 00:34:10;;;;;;;18.00;2.50;;;3.90;99.90;;;;;;5002879;28;20050;-77
2022/01/20 00:39:03;;;;;;;20.60;2.67;;;3.90;99.90;;;;;;5018886;28;20058;-76
2022/01/20 00:41:28;;;;;;;18.67;2.07;;;3.90;99.90;;;;;;4990954;28;20092;-76
2022/01/20 00:43:54;;;;;;;18.13;2.50;;;4.00;99.90;;;;;;4969457;28;20046;-77
2022/01/20 00:46:21;;;;;;;15.90;2.40;;;4.00;99.90;;;;;;4974735;28;20081;-76
2022/01/20 00:48:47;;;;;;;16.97;2.30;;;4.00;99.90;;;;;;4984760;28;20050;-78
2022/01/20 00:51:13;;;;;;;21.63;2.67;;;4.00;99.90;;;;;;4974554;28;20454;-77
2022/01/20 00:53:44;;;;;;;18.93;2.00;;;3.90;99.90;;;;;;4969935;28;20136;-77
2022/01/20 00:56:10;;;;;;;21.40;2.50;;;3.90;99.90;;;;;;4957062;28;20042;-77
2022/01/20 00:58:36;;;;;;;20.90;2.67;;;3.90;99.90;;;;;;4990689;28;20464;-77
2022/01/20 01:01:01;;;;;;;15.17;2.13;;;3.80;99.90;;;;;;4967476;28;20113;-76
2022/01/20 01:03:28;;;;;;;17.57;2.20;;;3.80;99.90;;;;;;4988484;28;20480;-77
2022/01/20 01:06:32;;;;;;;25.33;2.43;;;3.80;99.90;;;;;;4968037;28;20148;-76
2022/01/20 01:08:41;;;;;;;11.83;2.03;;;3.70;99.90;;;;;;4972635;28;20646;-79
2022/01/20 01:11:06;;;;;;;18.30;2.27;;;3.70;99.90;;;;;;5001774;28;20057;-77
2022/01/20 01:13:32;;;;;;;17.70;2.53;;;3.70;99.90;;;;;;4987993;28;20050;-76
2022/01/20 01:15:58;;;;;;;19.10;2.10;;;3.70;99.90;;;;;;4990946;28;20046;-77
2022/01/20 01:21:26;;;;;;;17.38;1.75;;;3.70;99.90;;;;;;4990932;28;20042;-77
2022/01/20 01:23:52;;;;;;;19.48;2.45;;;3.70;99.90;;;;;;4966630;28;20385;-77
2022/01/20 01:26:21;;;;;;;22.57;2.17;;;3.70;99.90;;;;;;4977806;28;20046;-76
2022/01/20 01:28:48;;;;;;;18.90;2.60;;;3.60;99.90;;;;;;4964261;28;20057;-76
2022/01/20 01:33:51;;;;;;;18.13;2.23;;;3.70;99.90;;;;;;4993862;28;20085;-78
2022/01/20 01:36:21;;;;;;;15.57;2.20;;;3.80;99.90;;;;;;4972883;28;20084;-75
2022/01/20 01:38:47;;;;;;;17.13;2.07;;;3.80;99.90;;;;;;4993708;28;20050;-76
2022/01/20 01:41:16;;;;;;;24.87;2.70;;;3.90;99.90;;;;;;4987950;28;20061;-78
2022/01/20 01:43:45;;;;;;;16.60;2.07;;;4.00;99.90;;;;;;5008429;28;20096;-78
2022/01/20 01:46:12;;;;;;;16.97;2.30;;;4.00;99.90;;;;;;4977880;28;20137;-77
2022/01/20 01:48:42;;;;;;;17.63;2.10;;;4.10;99.90;;;;;;5004270;28;20066;-76
2022/01/20 01:51:09;;;;;;;13.83;1.80;;;4.20;99.90;;;;;;4994691;28;20050;-77
2022/01/20 01:53:36;;;;;;;11.43;1.53;;;4.20;99.90;;;;;;4977664;28;20484;-77
2022/01/20 01:56:03;;;;;;;14.90;1.63;;;4.30;99.90;;;;;;4977648;28;20047;-76
2022/01/20 01:58:29;;;;;;;11.10;1.77;;;4.20;99.90;;;;;;4975562;28;20492;-77
2022/01/20 02:01:16;;;;;;;15.80;1.83;;;4.20;99.90;;;;;;4987800;28;20057;-77
2022/01/20 02:03:45;;;;;;;14.17;1.63;;;4.20;99.90;;;;;;4984461;28;20050;-78
2022/01/20 02:06:40;;;;;;;7.47;1.50;;;4.10;99.90;;;;;;4969427;28;20502;-77
2022/01/20 02:09:28;;;;;;;11.37;1.30;;;4.00;99.90;;;;;;4992698;28;20076;-77
2022/01/20 02:20:14;;;;;;;13.10;1.40;;;3.70;99.90;;;;;;4992180;28;20042;-77
2022/01/20 02:22:51;;;;;;;10.50;1.53;;;3.70;99.90;;;;;;4989051;28;20049;-77
2022/01/20 02:25:24;;;;;;;11.33;1.60;;;3.70;99.90;;;;;;4976456;28;20078;-77
2022/01/20 02:27:51;;;;;;;8.70;1.30;;;3.70;99.90;;;;;;5007209;28;20042;-77
2022/01/20 02:30:18;;;;;;;8.80;1.50;;;3.80;99.90;;;;;;5001530;28;20046;-77
2022/01/20 02:32:52;;;;;;;12.83;2.10;;;3.80;99.90;;;;;;5009743;28;20403;-79
2022/01/20 02:35:21;;;;;;;14.93;1.70;;;3.90;99.90;;;;;;4963747;28;20423;-78
2022/01/20 02:37:48;;;;;;;14.50;1.80;;;3.90;99.90;;;;;;5008782;28;20053;-77
2022/01/20 02:45:43;;;;;;;14.10;1.48;;;4.00;99.90;;;;;;5013630;28;19929;-77
2022/01/20 02:48:09;;;;;;;14.17;1.67;;;4.10;99.90;;;;;;5008427;28;20046;-78
2022/01/20 02:50:36;;;;;;;13.73;1.60;;;4.10;99.90;;;;;;4975719;28;20043;-78
2022/01/20 02:53:02;;;;;;;11.30;1.83;;;4.10;99.90;;;;;;4991491;28;20046;-79
2022/01/20 02:55:28;;;;;;;13.00;2.20;;;4.10;99.90;;;;;;4977266;28;20567;-78
2022/01/20 02:57:54;;;;;;;12.47;1.60;;;4.10;99.90;;;;;;4999422;28;20046;-79
2022/01/20 03:00:20;;;;;;;12.33;1.90;;;4.10;99.90;;;;;;4992707;28;20455;-78
2022/01/20 03:02:47;;;;;;;11.20;2.13;;;4.10;99.90;;;;;;4992482;28;20129;-77
2022/01/20 03:05:13;;;;;;;15.97;2.27;;;4.00;99.90;;;;;;4992887;28;20042;-79
2022/01/20 03:07:45;;;;;;;19.87;2.50;;;4.00;99.90;;;;;;5006591;28;20069;-76
2022/01/20 03:10:11;;;;;;;17.27;2.20;;;4.00;99.90;;;;;;4975614;28;20042;-77
2022/01/20 03:12:37;;;;;;;15.87;2.40;;;3.90;99.90;;;;;;4975648;28;20042;-77
2022/01/20 03:15:03;;;;;;;18.47;2.63;;;3.90;99.90;;;;;;5006640;28;20057;-77
2022/01/20 03:17:32;;;;;;;17.97;2.37;;;3.90;99.90;;;;;;4989620;28;20074;-77
2022/01/20 03:19:58;;;;;;;20.60;2.40;;;3.90;99.90;;;;;;5007007;28;20692;-77
2022/01/20 03:22:23;;;;;;;19.80;3.27;;;3.80;99.90;;;;;;4975689;28;20104;-77
2022/01/20 03:24:51;;;;;;;30.67;3.17;;;3.80;99.90;;;;;;4990418;28;20050;-77
2022/01/20 03:27:17;;;;;;;26.80;3.87;;;3.80;99.90;;;;;;4975634;28;20522;-77
2022/01/20 03:29:44;;;;;;;24.10;2.77;;;3.80;99.90;;;;;;4984833;28;20062;-77
2022/01/20 03:32:10;;;;;;;26.17;3.03;;;3.80;99.90;;;;;;4963733;28;20085;-77
2022/01/20 03:34:35;;;;;;;25.17;3.27;;;3.80;99.90;;;;;;4990125;28;20390;-77
2022/01/20 03:37:07;;;;;;;20.80;3.57;;;3.80;99.90;;;;;;5003933;28;20078;-76
2022/01/20 03:39:43;;;;;;;26.93;4.10;;;3.80;99.90;;;;;;4989747;28;20045;-77
2022/01/20 03:42:10;;;;;;;25.83;3.93;;;3.80;99.90;;;;;;4991455;28;20076;-76
2022/01/20 03:44:36;;;;;;;28.90;4.00;;;3.80;99.90;;;;;;4972782;28;20576;-78
2022/01/20 03:47:03;;;;;;;23.07;4.10;;;3.80;99.90;;;;;;5007922;28;20132;-77
2022/01/20 03:49:39;;;;;;;36.23;4.63;;;3.80;99.90;;;;;;4989078;28;20052;-77
2022/01/20 03:52:06;;;;;;;25.53;3.97;;;3.80;99.90;;;;;;4975532;28;20046;-80
2022/01/20 03:54:33;;;;;;;24.80;3.07;;;3.80;99.90;;;;;;4973350;28;20446;-77
2022/01/20 03:57:19;;;;;;;25.03;3.43;;;3.80;99.90;;;;;;5005955;28;20049;-78
2022/01/20 03:59:59;;;;;;;25.97;3.00;;;3.80;99.90;;;;;;5002722;28;20202;-76
2022/01/20 04:02:40;;;;;;;30.63;4.37;;;3.70;99.90;;;;;;5024136;28;20047;-77
2022/01/20 04:05:29;;;;;;;32.30;3.87;;;3.70;99.90;;;;;;4994053;28;20674;-77
2022/01/20 04:08:31;;;;;;;30.37;3.30;;;3.70;99.90;;;;;;4990257;28;20038;-77
2022/01/20 04:10:57;;;;;;;29.53;4.00;;;3.70;99.90;;;;;;4973868;28;20042;-77
2022/01/20 04:13:30;;;;;;;26.07;3.40;;;3.70;99.90;;;;;;4969081;28;20046;-78
2022/01/20 04:15:59;;;;;;;22.23;3.37;;;3.70;99.90;;;;;;4991510;28;20056;-76
2022/01/20 04:18:26;;;;;;;31.47;4.23;;;3.70;99.90;;;;;;4989180;28;20546;-77
2022/01/20 04:20:52;;;;;;;20.13;3.57;;;3.60;99.90;;;;;;4967331;28;20065;-76
2022/01/20 04:23:19;;;;;;;24.07;3.67;;;3.60;99.90;;;;;;4973422;28;20077;-77
2022/01/20 04:25:45;;;;;;;20.67;2.60;;;3.60;99.90;;;;;;4991015;28;20038;-77
2022/01/20 04:28:11;;;;;;;19.90;3.10;;;3.60;99.90;;;;;;4989288;28;20132;-77
2022/01/20 04:30:39;;;;;;;22.23;2.60;;;3.60;99.90;;;;;;4968796;28;20062;-79
2022/01/20 04:33:04;;;;;;;18.80;2.50;;;3.70;99.90;;;;;;4972487;28;20050;-76
2022/01/20 04:35:32;;;;;;;22.83;3.20;;;3.60;99.90;;;;;;4965803;28;20034;-77
2022/01/20 04:37:58;;;;;;;21.73;3.30;;;3.60;99.90;;;;;;4973793;28;20046;-77
2022/01/20 04:40:24;;;;;;;24.87;2.73;;;3.60;99.90;;;;;;4991237;28;20042;-81
2022/01/20 04:42:51;;;;;;;14.07;2.50;;;3.60;99.90;;;;;;4972911;28;20410;-77
2022/01/20 04:45:25;;;;;;;17.73;3.00;;;3.50;99.90;;;;;;5005327;28;20403;-77
2022/01/20 04:48:14;;;;;;;21.88;3.42;;;3.50;99.90;;;;;;4973321;28;20401;-77
2022/01/20 04:58:53;;;;;;;19.52;2.50;;;3.20;99.90;;;;;;4969713;28;20054;-77
2022/01/20 05:01:19;;;;;;;19.07;2.83;;;3.10;99.90;;;;;;4981611;28;20476;-77
2022/01/20 05:04:04;;;;;;;17.93;2.70;;;3.10;99.90;;;;;;4989190;28;20494;-76
2022/01/20 05:06:56;;;;;;;14.07;2.27;;;3.00;99.90;;;;;;4983790;28;20427;-77
2022/01/20 05:09:22;;;;;;;14.20;2.70;;;2.90;99.90;;;;;;4989296;28;20031;-77
2022/01/20 05:11:58;;;;;;;15.70;2.70;;;2.80;99.90;;;;;;4973541;28;20042;-77
2022/01/20 05:14:24;;;;;;;21.73;2.73;;;2.80;99.90;;;;;;4989990;28;20097;-76
2022/01/20 05:16:51;;;;;;;21.43;2.97;;;2.80;99.90;;;;;;4973159;28;20120;-77
2022/01/20 05:19:18;;;;;;;19.00;2.93;;;2.70;99.90;;;;;;4957841;28;20047;-77
2022/01/20 05:21:44;;;;;;;24.53;3.63;;;2.70;99.90;;;;;;4990847;28;20431;-77
2022/01/20 05:24:22;;;;;;;23.57;2.67;;;2.70;99.90;;;;;;4972104;28;20130;-77
2022/01/20 05:26:50;;;;;;;24.83;2.93;;;2.70;99.90;;;;;;5003088;28;20425;-77
2022/01/20 05:29:15;;;;;;;21.00;3.23;;;2.80;99.90;;;;;;4988675;28;20038;-77
2022/01/20 05:31:41;;;;;;;20.03;4.33;;;2.80;99.90;;;;;;4970068;28;20042;-77
2022/01/20 05:34:08;;;;;;;15.67;2.63;;;2.80;99.90;;;;;;4970199;28;20558;-77
2022/01/20 05:36:36;;;;;;;20.40;3.20;;;2.90;99.90;;;;;;5006796;28;20507;-77
2022/01/20 05:39:02;;;;;;;19.20;2.60;;;2.90;99.90;;;;;;4976188;28;20050;-77
2022/01/20 05:41:29;;;;;;;11.30;2.27;;;3.10;99.90;;;;;;4974601;28;20503;-77
2022/01/20 05:44:01;;;;;;;13.80;2.30;;;3.00;99.90;;;;;;4974008;28;20492;-78
2022/01/20 05:46:34;;;;;;;12.13;2.10;;;3.00;99.90;;;;;;4972534;28;20043;-77
2022/01/20 05:49:08;;;;;;;13.53;1.90;;;3.10;99.90;;;;;;4990225;28;20050;-79
2022/01/20 05:51:44;;;;;;;10.83;1.87;;;3.10;99.90;;;;;;4974569;28;20050;-79
2022/01/20 05:54:09;;;;;;;10.23;1.63;;;3.00;99.90;;;;;;4973529;28;20057;-78
2022/01/20 05:56:35;;;;;;;12.70;1.77;;;3.10;99.90;;;;;;4985530;28;20133;-77
2022/01/20 05:59:01;;;;;;;13.70;2.10;;;3.00;99.90;;;;;;4982168;28;20081;-76
2022/01/20 06:01:31;;;;;;;15.90;2.10;;;3.00;99.90;;;;;;4974501;28;20043;-80
2022/01/20 06:03:58;;;;;;;9.17;1.93;;;2.90;99.90;;;;;;4984872;28;20035;-78
2022/01/20 06:06:26;;;;;;;16.80;1.97;;;2.90;99.90;;;;;;4987059;28;20496;-78
2022/01/20 06:08:54;;;;;;;11.83;2.00;;;2.80;99.90;;;;;;4975768;28;20097;-77
2022/01/20 06:11:20;;;;;;;10.93;1.90;;;2.70;99.90;;;;;;4975173;28;20398;-77
2022/01/20 06:13:48;;;;;;;11.03;2.27;;;2.60;99.90;;;;;;4967387;28;20062;-77
2022/01/20 06:16:15;;;;;;;14.53;2.40;;;2.60;99.90;;;;;;4977033;28;20096;-77
2022/01/20 06:18:40;;;;;;;13.17;2.73;;;2.50;99.90;;;;;;4992643;28;20038;-77
2022/01/20 06:21:07;;;;;;;14.83;2.10;;;2.50;99.90;;;;;;4977241;28;20046;-77
2022/01/20 06:23:33;;;;;;;14.50;2.43;;;2.40;99.90;;;;;;4991122;28;20514;-77
2022/01/20 06:26:05;;;;;;;10.43;2.03;;;2.50;99.90;;;;;;5004905;28;20100;-76
2022/01/20 06:28:30;;;;;;;22.20;2.40;;;2.40;99.90;;;;;;4991950;28;20042;-77
2022/01/20 06:30:56;;;;;;;13.23;1.93;;;2.50;99.90;;;;;;4974999;28;20046;-77
2022/01/20 06:33:23;;;;;;;15.13;2.47;;;2.50;99.90;;;;;;4965809;28;20133;-78
2022/01/20 06:35:53;;;;;;;19.07;2.43;;;2.50;99.90;;;;;;5008235;28;20507;-77
2022/01/20 06:38:20;;;;;;;14.93;2.57;;;2.60;99.90;;;;;;4973793;28;20058;-78
2022/01/20 06:40:47;;;;;;;12.90;1.93;;;2.60;99.90;;;;;;4972117;28;20125;-77
2022/01/20 06:43:14;;;;;;;16.50;2.77;;;2.60;99.90;;;;;;4994817;28;20705;-77
2022/01/20 06:45:40;;;;;;;20.43;2.30;;;2.70;99.90;;;;;;4970915;28;20133;-78
2022/01/20 06:48:13;;;;;;;13.63;2.27;;;2.60;99.90;;;;;;4973762;28;20057;-77
2022/01/20 06:50:59;;;;;;;15.63;2.30;;;2.60;99.90;;;;;;4986662;28;20142;-77
2022/01/20 06:53:24;;;;;;;15.00;2.77;;;2.50;99.90;;;;;;4974410;28;20129;-76
2022/01/20 06:55:50;;;;;;;14.87;3.27;;;2.50;99.90;;;;;;4975075;28;20050;-77
2022/01/20 06:58:21;;;;;;;20.63;2.77;;;2.50;99.90;;;;;;4970755;28;20100;-77
2022/01/20 07:00:47;;;;;;;17.60;2.50;;;2.40;99.90;;;;;;4965516;28;20108;-76
2022/01/20 07:03:12;;;;;;;15.53;2.63;;;2.30;99.90;;;;;;4995885;28;20050;-76
2022/01/20 07:05:39;;;;;;;14.30;2.30;;;2.30;99.90;;;;;;4987058;28;20046;-77
2022/01/20 07:08:05;;;;;;;17.63;2.77;;;2.30;99.90;;;;;;4968758;28;20093;-78
2022/01/20 07:10:31;;;;;;;17.60;2.50;;;2.30;99.90;;;;;;5000700;28;20034;-78
2022/01/20 07:12:57;;;;;;;15.23;2.57;;;2.30;99.90;;;;;;4999945;28;20081;-76
2022/01/20 07:15:24;;;;;;;19.30;2.70;;;2.20;99.90;;;;;;4966719;28;20855;-77
2022/01/20 07:17:51;;;;;;;20.37;2.47;;;2.30;99.90;;;;;;4967272;28;20131;-78
2022/01/20 07:20:19;;;;;;;26.73;2.97;;;2.20;99.90;;;;;;4955805;28;20042;-76
2022/01/20 07:22:57;;;;;;;18.83;2.53;;;2.20;99.90;;;;;;4998378;28;20046;-77
2022/01/20 07:25:23;;;;;;;16.00;2.80;;;2.20;99.90;;;;;;4982204;28;20068;-77
2022/01/20 07:27:53;;;;;;;16.80;2.20;;;2.20;99.90;;;;;;4977638;28;20197;-76
2022/01/20 07:30:19;;;;;;;16.47;2.63;;;2.30;99.90;;;;;;4967672;28;20192;-77
2022/01/20 07:32:47;;;;;;;18.97;2.70;;;2.30;99.90;;;;;;5001270;28;20504;-77
2022/01/20 07:35:18;;;;;;;17.17;3.03;;;2.30;99.90;;;;;;4982454;28;20068;-77
2022/01/20 07:37:44;;;;;;;15.13;2.40;;;2.30;99.90;;;;;;4982933;28;20129;-76
2022/01/20 07:40:11;;;;;;;16.20;2.33;;;2.30;99.90;;;;;;4968543;28;20060;-77
2022/01/20 07:42:36;;;;;;;16.07;2.40;;;2.20;99.90;;;;;;4968017;28;20046;-77
2022/01/20 07:45:10;;;;;;;18.38;2.97;;;2.20;99.90;;;;;;4966348;28;20109;-78
2022/01/20 07:47:42;;;;;;;20.13;3.13;;;2.30;99.90;;;;;;4951233;28;20420;-78
2022/01/20 07:50:10;;;;;;;15.53;2.13;;;2.40;99.90;;;;;;4968965;28;20054;-78
2022/01/20 07:52:36;;;;;;;13.37;2.43;;;2.50;99.90;;;;;;4967520;28;20042;-77
2022/01/20 07:55:03;;;;;;;15.93;2.50;;;2.50;99.90;;;;;;4983886;28;20670;-75
2022/01/20 07:57:29;;;;;;;16.33;2.20;;;2.50;99.90;;;;;;4966358;28;20054;-77
2022/01/20 07:59:55;;;;;;;17.97;2.23;;;2.40;99.90;;;;;;4978994;28;20048;-78
2022/01/20 08:02:26;;;;;;;25.00;3.20;;;2.40;99.90;;;;;;4966775;28;20067;-76
2022/01/20 08:04:52;;;;;;;22.77;3.13;;;2.40;99.90;;;;;;4984842;28;20061;-77
2022/01/20 08:07:20;;;;;;;21.73;2.77;;;2.40;99.90;;;;;;4998677;28;20058;-77
2022/01/20 08:09:49;;;;;;;22.03;3.13;;;2.30;99.90;;;;;;4966585;28;20066;-76
2022/01/20 08:12:18;;;;;;;19.77;2.60;;;2.30;99.90;;;;;;5015647;28;20440;-76
2022/01/20 08:14:55;;;;;;;15.77;2.93;;;2.20;99.90;;;;;;4966374;28;20129;-76
2022/01/20 08:17:36;;;;;;;15.00;2.20;;;2.30;99.90;;;;;;4965835;28;20125;-77
2022/01/20 08:20:02;;;;;;;17.00;2.70;;;2.30;99.90;;;;;;4966231;28;20224;-76
2022/01/20 08:22:34;;;;;;;22.90;3.00;;;2.30;99.90;;;;;;4982249;28;20034;-77
2022/01/20 08:25:00;;;;;;;20.87;2.40;;;2.40;99.90;;;;;;4967075;28;20050;-77
2022/01/20 08:27:25;;;;;;;23.80;3.20;;;2.50;99.90;;;;;;4965696;28;20522;-77
2022/01/20 08:29:51;;;;;;;20.70;3.30;;;2.50;99.90;;;;;;4995088;28;20131;-76
2022/01/20 08:32:23;;;;;;;21.27;2.70;;;2.60;99.90;;;;;;4966549;28;20052;-76
2022/01/20 08:34:57;;;;;;;22.90;3.17;;;2.70;99.90;;;;;;4967156;28;20082;-77
2022/01/20 08:37:37;;;;;;;16.67;2.63;;;2.70;99.90;;;;;;4964680;28;20061;-76
2022/01/20 08:40:09;;;;;;;22.17;2.70;;;2.80;99.90;;;;;;4969139;28;20054;-77
2022/01/20 08:42:35;;;;;;;25.30;3.70;;;2.90;99.90;;;;;;4968388;28;20117;-77
2022/01/20 08:45:01;;;;;;;20.40;2.83;;;3.00;99.90;;;;;;4967655;28;20113;-76
2022/01/20 08:47:27;;;;;;;17.57;2.50;;;3.10;99.90;;;;;;4998118;28;20056;-78
2022/01/20 08:49:53;;;;;;;19.37;3.00;;;3.10;99.90;;;;;;4994378;28;20046;-77
2022/01/20 08:52:21;;;;;;;17.83;2.83;;;3.20;99.90;;;;;;4982563;28;20511;-77
2022/01/20 08:54:54;;;;;;;18.03;2.97;;;3.20;99.90;;;;;;4984752;28;20140;-77
2022/01/20 08:57:37;;;;;;;25.65;3.55;;;3.30;99.90;;;;;;4998162;28;21352;-77
2022/01/20 09:00:06;;;;;;;18.73;2.97;;;3.30;99.90;;;;;;4953797;28;20050;-77
2022/01/20 09:02:39;;;;;;;18.13;2.93;;;3.40;99.90;;;;;;4999176;28;20038;-76
2022/01/20 09:05:06;;;;;;;14.90;2.20;;;3.40;99.90;;;;;;4966644;28;20586;-77
2022/01/20 09:07:50;;;;;;;27.17;3.37;;;3.50;99.90;;;;;;4977941;28;20177;-77
2022/01/20 09:10:19;;;;;;;18.13;3.03;;;3.60;99.90;;;;;;4966609;28;20109;-78
2022/01/20 09:15:30;;;;;;;14.50;2.30;;;4.00;99.90;;;;;;4969253;28;20045;-78
2022/01/20 09:18:08;;;;;;;16.47;2.03;;;4.00;99.90;;;;;;5000790;28;20050;-77
2022/01/20 09:20:37;;;;;;;14.83;2.80;;;3.90;99.90;;;;;;4978559;28;20057;-77
2022/01/20 09:23:04;;;;;;;16.67;2.47;;;3.80;99.90;;;;;;5000037;28;20042;-78
2022/01/20 09:25:32;;;;;;;18.23;3.63;;;3.80;99.90;;;;;;4981252;28;20162;-77
2022/01/20 09:28:00;;;;;;;14.23;2.33;;;3.70;99.90;;;;;;4967557;28;20057;-77
2022/01/20 09:30:28;;;;;;;14.87;2.67;;;3.60;99.90;;;;;;4960816;28;20515;-76
2022/01/20 09:33:23;;;;;;;20.00;2.30;;;3.60;99.90;;;;;;4967823;28;20058;-78
2022/01/20 09:35:45;;;;;;;12.67;2.30;;;3.60;99.90;;;;;;4968955;28;20057;-77
2022/01/20 09:38:12;;;;;;;19.77;2.80;;;3.60;99.90;;;;;;4971565;28;20073;-77
2022/01/20 09:40:39;;;;;;;16.33;2.20;;;3.60;99.90;;;;;;5004560;28;20042;-77
2022/01/20 09:43:07;;;;;;;11.90;2.03;;;3.80;99.90;;;;;;4972465;28;20423;-77
2022/01/20 09:45:33;;;;;;;10.80;2.20;;;3.90;99.90;;;;;;4972098;28;20038;-78
2022/01/20 09:48:01;;;;;;;16.30;2.33;;;4.20;99.90;;;;;;5007627;28;20141;-77
2022/01/20 09:50:47;;;;;;;9.27;1.90;;;4.50;99.90;;;;;;4986898;28;20677;-79
2022/01/20 09:53:33;;;;;;;8.50;1.73;;;4.30;99.90;;;;;;4966940;28;20055;-77
2022/01/20 09:56:08;;;;;;;10.40;1.30;;;4.10;99.90;;;;;;5003186;28;20050;-78
2022/01/20 09:58:33;;;;;;;9.77;2.00;;;4.00;99.90;;;;;;4989757;28;20419;-77
2022/01/20 10:00:59;;;;;;;12.07;1.70;;;3.90;99.90;;;;;;4995023;28;20054;-77
2022/01/20 10:03:29;;;;;;;9.67;1.33;;;3.80;99.90;;;;;;4975861;28;20496;-77
2022/01/20 10:05:55;;;;;;;13.80;1.90;;;3.80;99.90;;;;;;4974483;28;20056;-76
2022/01/20 10:08:23;;;;;;;10.33;1.33;;;3.80;99.90;;;;;;4990115;28;20511;-77
2022/01/20 10:11:17;;;;;;;10.27;2.13;;;4.10;99.90;;;;;;4989097;28;20502;-77
2022/01/20 10:14:07;;;;;;;10.67;1.60;;;5.00;99.90;;;;;;4969945;28;20050;-78
2022/01/20 10:16:41;;;;;;;8.90;1.53;;;6.70;99.90;;;;;;4985461;28;20041;-78
2022/01/20 10:19:22;;;;;;;9.57;1.93;;;8.20;99.90;;;;;;5000225;28;20474;-78
2022/01/20 10:21:48;;;;;;;7.53;1.53;;;9.50;99.90;;;;;;4955768;28;20046;-78
2022/01/20 10:24:57;;;;;;;7.20;1.60;;;10.30;99.90;;;;;;4973619;28;20050;-78
2022/01/20 10:27:50;;;;;;;7.57;1.50;;;9.90;99.90;;;;;;4986015;28;20061;-79
2022/01/20 10:30:16;;;;;;;11.63;2.23;;;8.90;99.90;;;;;;4981428;28;20042;-78
2022/01/20 10:32:44;;;;;;;15.37;2.63;;;7.90;99.90;;;;;;4971144;28;20627;-78
2022/01/20 10:35:12;;;;;;;17.37;2.33;;;7.10;99.90;;;;;;4986759;28;20064;-80
2022/01/20 10:37:38;;;;;;;10.43;2.13;;;6.60;99.90;;;;;;4953629;28;20053;-77
2022/01/20 10:40:08;;;;;;;12.87;2.37;;;6.20;99.90;;;;;;4970763;28;20042;-77
2022/01/20 10:42:39;;;;;;;12.60;2.10;;;5.90;99.90;;;;;;5002078;28;20116;-79
2022/01/20 10:45:08;;;;;;;8.07;1.70;;;5.50;99.90;;;;;;4970194;28;20042;-77
2022/01/20 10:47:36;;;;;;;10.80;1.60;;;5.20;99.90;;;;;;4985862;28;20463;-77
2022/01/20 10:50:11;;;;;;;9.43;1.80;;;5.10;99.90;;;;;;4974330;28;20128;-78
2022/01/20 10:52:41;;;;;;;10.93;2.00;;;5.10;99.90;;;;;;4985843;28;20045;-78
2022/01/20 10:55:18;;;;;;;17.43;2.33;;;5.60;99.90;;;;;;4984259;28;20038;-77
2022/01/20 10:57:44;;;;;;;12.43;2.00;;;6.40;99.90;;;;;;4986264;28;20100;-79
2022/01/20 11:00:17;;;;;;;10.77;1.70;;;6.60;99.90;;;;;;4972472;28;20070;-77
2022/01/20 11:02:49;;;;;;;11.03;1.90;;;6.60;99.90;;;;;;4989354;28;20042;-77
2022/01/20 11:05:16;;;;;;;13.77;2.63;;;6.50;99.90;;;;;;5004914;28;20108;-78
2022/01/20 11:07:44;;;;;;;15.10;2.60;;;6.50;99.90;;;;;;4988818;28;20054;-78
2022/01/20 11:10:11;;;;;;;12.50;2.23;;;6.30;99.90;;;;;;4989294;28;20038;-77
2022/01/20 11:12:50;;;;;;;14.33;2.23;;;6.00;99.90;;;;;;4989356;28;20072;-79
2022/01/20 11:15:26;;;;;;;14.57;2.43;;;6.00;99.90;;;;;;5004510;28;20408;-79
2022/01/20 11:17:56;;;;;;;11.43;1.87;;;6.90;99.90;;;;;;5003953;28;20078;-79
2022/01/20 11:20:28;;;;;;;12.13;2.33;;;8.20;99.90;;;;;;4991925;28;20046;-78
2022/01/20 11:22:57;;;;;;;10.80;2.13;;;9.50;99.90;;;;;;4984705;28;20061;-78
2022/01/20 11:25:30;;;;;;;13.97;2.53;;;10.40;99.90;;;;;;4991634;28;20097;-78
2022/01/20 11:28:08;;;;;;;13.17;2.27;;;11.10;99.90;;;;;;5000124;28;20177;-79
2022/01/20 11:30:57;;;;;;;12.37;2.50;;;12.00;99.90;;;;;;5000977;28;20042;-78
2022/01/20 11:33:36;;;;;;;11.50;2.43;;;12.70;99.90;;;;;;4990552;28;20070;-81
2022/01/20 11:36:02;;;;;;;14.93;2.60;;;13.00;99.90;;;;;;4970833;28;20049;-80
2022/01/20 11:38:37;;;;;;;15.57;2.87;;;13.00;99.90;;;;;;4975266;28;20046;-79
2022/01/20 11:41:04;;;;;;;14.17;2.30;;;12.40;99.90;;;;;;4958979;28;20050;-79
2022/01/20 11:43:36;;;;;;;15.50;3.27;;;11.70;99.90;;;;;;4958410;28;20045;-79
2022/01/20 11:46:11;;;;;;;16.20;3.47;;;11.20;99.90;;;;;;4990437;28;20415;-79
2022/01/20 11:48:49;;;;;;;14.70;3.10;;;11.70;99.90;;;;;;4986004;28;20492;-79
2022/01/20 11:51:17;;;;;;;13.33;2.60;;;12.20;99.90;;;;;;4990334;28;20079;-78
2022/01/20 11:53:54;;;;;;;14.50;3.17;;;12.20;99.90;;;;;;4990037;28;20416;-78
2022/01/20 11:56:29;;;;;;;17.07;3.07;;;11.70;99.90;;;;;;4972629;28;20076;-78
2022/01/20 11:58:55;;;;;;;15.17;2.70;;;11.80;99.90;;;;;;4995431;28;20046;-76
2022/01/20 12:01:22;;;;;;;14.83;2.80;;;12.00;99.90;;;;;;5018945;28;20045;-78
2022/01/20 12:03:51;;;;;;;9.60;2.43;;;11.80;99.00;;;;;;4987602;28;20039;-79
2022/01/20 12:06:24;;;;;;;11.20;2.17;;;11.10;98.70;;;;;;4965819;28;20054;-78
2022/01/20 12:08:58;;;;;;;13.67;2.60;;;10.30;99.20;;;;;;4985450;28;20038;-78
2022/01/20 12:11:35;;;;;;;11.97;3.03;;;9.30;99.90;;;;;;4969030;28;20073;-78
2022/01/20 12:14:01;;;;;;;18.47;2.70;;;8.50;99.90;;;;;;5005001;28;20054;-79
2022/01/20 12:16:28;;;;;;;11.93;2.60;;;8.30;99.90;;;;;;4968889;28;20038;-79
2022/01/20 12:18:56;;;;;;;15.77;2.67;;;9.10;99.90;;;;;;5003445;28;20084;-79
2022/01/20 12:21:22;;;;;;;14.27;2.47;;;10.10;99.90;;;;;;4974278;28;20590;-78
2022/01/20 12:23:50;;;;;;;9.90;2.70;;;10.90;99.90;;;;;;4989109;28;20041;-78
2022/01/20 12:26:16;;;;;;;13.50;2.20;;;11.40;99.90;;;;;;4974681;28;20611;-78
2022/01/20 12:28:42;;;;;;;12.07;2.23;;;11.80;99.90;;;;;;4973286;28;20042;-81
2022/01/20 12:31:22;;;;;;;11.10;2.37;;;12.30;99.90;;;;;;5090692;27;20403;-77
2022/01/20 12:33:48;;;;;;;15.67;2.87;;;12.60;99.90;;;;;;5063576;28;20140;-77
2022/01/20 12:36:15;;;;;;;13.17;2.43;;;12.90;99.40;;;;;;5056529;28;20139;-79
2022/01/20 12:38:42;;;;;;;14.87;2.30;;;12.70;98.70;;;;;;5063111;28;20040;-77
2022/01/20 12:41:09;;;;;;;13.70;2.40;;;12.60;97.80;;;;;;5040389;28;20402;-77
2022/01/20 12:43:37;;;;;;;15.10;2.90;;;12.70;98.00;;;;;;5074504;28;20049;-77
2022/01/20 12:46:03;;;;;;;15.17;2.70;;;13.00;97.30;;;;;;5064815;28;20508;-76
2022/01/20 12:48:30;;;;;;;15.30;2.87;;;13.20;97.30;;;;;;5044479;28;20047;-77
2022/01/20 12:51:02;;;;;;;14.87;2.30;;;12.80;96.10;;;;;;5068621;28;20128;-76
2022/01/20 12:53:37;;;;;;;20.17;3.77;;;12.00;96.20;;;;;;5045544;28;20522;-78
2022/01/20 12:56:04;;;;;;;16.40;2.87;;;11.10;96.90;;;;;;5053943;28;20124;-78
2022/01/20 12:58:30;;;;;;;17.17;3.20;;;10.90;97.80;;;;;;5053962;28;20044;-77
2022/01/20 13:01:00;;;;;;;16.97;3.30;;;11.10;98.00;;;;;;5080676;28;20078;-77
2022/01/20 13:03:36;;;;;;;14.77;2.80;;;10.90;98.30;;;;;;5057970;28;20048;-76
2022/01/20 13:06:02;;;;;;;19.17;3.03;;;10.60;98.30;;;;;;5036444;28;20648;-78
2022/01/20 13:08:34;;;;;;;14.77;3.20;;;10.10;98.60;;;;;;5046736;28;20056;-77
2022/01/20 13:11:05;;;;;;;14.83;2.67;;;9.50;99.20;;;;;;5053932;28;20070;-78
2022/01/20 13:13:31;;;;;;;20.07;3.23;;;9.10;99.90;;;;;;5075280;28;20427;-78
2022/01/20 13:15:57;;;;;;;18.33;2.87;;;9.10;99.90;;;;;;5048593;28;20044;-80
2022/01/20 13:18:22;;;;;;;19.60;3.00;;;9.10;99.90;;;;;;5059181;28;20462;-77
2022/01/20 13:20:55;;;;;;;21.17;2.80;;;8.60;99.90;;;;;;5059949;28;20035;-74
2022/01/20 13:25:46;;;;;;;14.53;2.90;;;7.50;99.90;;;;;;5073957;28;20041;-76
2022/01/20 13:28:14;;;;;;;13.20;2.63;;;7.00;99.90;;;;;;5066732;28;20041;-75
2022/01/20 13:30:44;;;;;;;12.87;2.47;;;6.70;99.90;;;;;;5039424;28;20056;-78
2022/01/20 13:33:16;;;;;;;14.40;2.70;;;6.50;99.90;;;;;;5054046;28;20066;-76
2022/01/20 13:35:43;;;;;;;16.40;2.93;;;6.90;99.90;;;;;;5055804;28;20035;-77
2022/01/20 13:38:11;;;;;;;14.77;2.60;;;7.30;99.90;;;;;;5064101;28;20044;-77
2022/01/20 13:40:37;;;;;;;12.87;2.17;;;7.70;99.90;;;;;;5041615;28;20045;-76
2022/01/20 13:45:40;;;;;;;11.23;1.93;;;8.40;99.90;;;;;;5050876;28;20620;-78
2022/01/20 13:48:07;;;;;;;13.23;2.27;;;8.50;99.90;;;;;;5046082;28;20059;-78
2022/01/20 13:50:35;;;;;;;10.60;2.67;;;8.50;99.90;;;;;;5040383;28;20087;-78
2022/01/20 13:53:10;;;;;;;11.17;2.13;;;8.50;99.90;;;;;;5059689;28;20052;-78
2022/01/20 13:55:39;;;;;;;13.03;2.67;;;8.30;99.90;;;;;;5044484;28;20045;-76